CheckWX is a tool to help pilots better visualize weather data.  It is not intended as a substitute for an official pre-flight weather briefing.

11:06:22 UTC

KAFW METAR
Fort Worth Alliance Airport
Fort Worth, Texas, USA
Current

1 hour ago

KAFW 060953Z 15006KT 7SM BKN033 OVC070 16/14 A2999 RMK AO2 SLP150 T01610139 $
Observed
Apr-6 @ 09:53 UTC
Wind
  • 150° at 6 KTS
Visibility
Flight Rules
VFR
Cloud Levels
  • Broken at 3,300' AGL
  • Overcast at 7,000' AGL
Temperature
16°C / 61°F
Dewpoint
14°C / 57°F
Humidity
88%
Altimeter
29.99" Hg
Pressure
1015.62 hPa
Previous

2 hours ago

KAFW 060853Z 14006KT 6SM BR OVC030 16/14 A2999 RMK AO2 SLP152 T01610139 58018 $
Observed
Apr-6 @ 08:53 UTC
Wind
  • 140° at 6 KTS
Visibility
Flight Rules
MVFR
Conditions
Mist
Cloud Levels
  • Overcast at 3,000' AGL
Temperature
16°C / 61°F
Dewpoint
14°C / 57°F
Humidity
88%
Altimeter
29.99" Hg
Pressure
1015.62 hPa
Previous

3 hours ago

KAFW 060811Z 12005KT 6SM BR SCT026 OVC032 16/14 A3001 RMK AO2 T01610139 $
Observed
Apr-6 @ 08:11 UTC
Wind
  • 120° at 5 KTS
Visibility
Flight Rules
VFR
Conditions
Mist
Cloud Levels
  • Scattered at 2,600' AGL
  • Overcast at 3,200' AGL
Temperature
16°C / 61°F
Dewpoint
14°C / 57°F
Humidity
88%
Altimeter
30.01" Hg
Pressure
1016.22 hPa